Time;durP1;ratioP1;P1;durP2;ratioP2;P2;SDS_P1;SDS_P2;PMS_P1;PMS_P2;Temp;Humidity;BMP_temperature;BMP_pressure;BME280_temperature;BME280_humidity;BME280_pressure;Samples;Min_cycle;Max_cycle;Signal;HPM_P1;HPM_P2
2023/06/29 00:01:55;;;;;;;8.02;2.05;;;20.40;67.50;;;;;;5063178;28;20368;-80
2023/06/29 00:04:21;;;;;;;2.50;1.67;;;20.40;67.40;;;;;;5063929;28;20350;-81
2023/06/29 00:06:49;;;;;;;5.60;2.05;;;20.40;67.30;;;;;;5061313;28;20020;-80
2023/06/29 00:09:16;;;;;;;4.55;1.90;;;20.40;67.40;;;;;;5062535;28;20473;-80
2023/06/29 00:11:43;;;;;;;5.82;2.10;;;20.40;67.50;;;;;;5063851;28;20020;-80
2023/06/29 00:14:08;;;;;;;2.72;1.85;;;20.40;67.50;;;;;;5063078;28;20051;-80
2023/06/29 00:16:35;;;;;;;7.03;2.13;;;20.40;67.50;;;;;;5065126;28;20473;-81
2023/06/29 00:19:01;;;;;;;3.35;1.88;;;20.40;67.60;;;;;;5064717;28;20012;-80
2023/06/29 00:21:28;;;;;;;5.63;1.90;;;20.40;67.60;;;;;;5065146;28;20028;-80
2023/06/29 00:23:54;;;;;;;5.32;1.88;;;20.40;67.50;;;;;;5065330;28;20380;-80
2023/06/29 00:26:20;;;;;;;4.90;2.05;;;20.40;67.50;;;;;;5064945;28;20101;-79
2023/06/29 00:28:46;;;;;;;6.68;1.77;;;20.40;67.40;;;;;;5064001;28;20017;-81
2023/06/29 00:31:11;;;;;;;3.08;1.83;;;20.40;67.50;;;;;;5067960;28;20392;-81
2023/06/29 00:33:37;;;;;;;3.97;2.15;;;20.40;67.50;;;;;;5064810;28;20021;-80
2023/06/29 00:36:03;;;;;;;3.22;1.80;;;20.40;67.60;;;;;;5065055;28;20024;-80
2023/06/29 00:38:29;;;;;;;4.82;1.40;;;20.40;67.60;;;;;;5064930;28;20074;-80
2023/06/29 00:40:54;;;;;;;4.70;1.95;;;20.40;67.50;;;;;;5061597;28;20100;-81
2023/06/29 00:43:20;;;;;;;5.68;2.03;;;20.40;67.50;;;;;;5064847;28;20040;-81
2023/06/29 00:45:46;;;;;;;4.10;1.77;;;20.40;67.50;;;;;;5062825;28;20048;-80
2023/06/29 00:48:12;;;;;;;16.65;2.28;;;20.40;67.60;;;;;;5065711;28;20029;-81
2023/06/29 00:50:39;;;;;;;2.53;1.40;;;20.40;67.50;;;;;;5064659;28;20067;-81
2023/06/29 00:53:06;;;;;;;3.90;1.90;;;20.40;67.60;;;;;;5062570;28;20013;-81
2023/06/29 00:55:31;;;;;;;3.88;2.30;;;20.40;67.50;;;;;;5065987;28;20469;-81
2023/06/29 00:57:57;;;;;;;2.10;1.90;;;20.40;67.60;;;;;;5066542;28;20025;-81
2023/06/29 01:00:23;;;;;;;2.58;1.77;;;20.40;67.60;;;;;;5061380;28;20109;-81
2023/06/29 01:02:49;;;;;;;2.08;1.52;;;20.40;67.70;;;;;;5066003;28;20023;-80
2023/06/29 01:05:16;;;;;;;7.50;1.90;;;20.40;67.70;;;;;;5069884;28;20025;-81
2023/06/29 01:07:45;;;;;;;2.58;1.90;;;20.40;67.60;;;;;;5069413;28;20086;-80
2023/06/29 01:10:12;;;;;;;4.15;2.15;;;20.30;67.50;;;;;;5064755;28;20025;-81
2023/06/29 01:12:40;;;;;;;5.90;2.28;;;20.30;67.60;;;;;;5066788;28;20021;-81
2023/06/29 01:15:06;;;;;;;10.15;1.63;;;20.30;67.50;;;;;;5066054;28;20016;-80
2023/06/29 01:17:36;;;;;;;4.75;1.80;;;20.30;67.50;;;;;;5062210;28;20112;-81
2023/06/29 01:20:04;;;;;;;3.00;1.77;;;20.30;67.60;;;;;;5070557;28;20034;-80
2023/06/29 01:22:37;;;;;;;3.05;1.60;;;20.40;67.60;;;;;;5069481;28;20036;-81
2023/06/29 01:25:03;;;;;;;3.05;1.80;;;20.40;67.60;;;;;;5065765;28;20484;-81
2023/06/29 01:27:29;;;;;;;2.67;1.92;;;20.30;67.60;;;;;;5067566;28;20032;-81
2023/06/29 01:29:55;;;;;;;2.88;2.00;;;20.40;67.60;;;;;;5063838;28;20053;-80
2023/06/29 01:32:33;;;;;;;5.88;1.80;;;20.40;67.50;;;;;;5064317;28;20017;-81
2023/06/29 01:35:00;;;;;;;3.63;1.98;;;20.40;67.60;;;;;;5061382;28;20079;-80
2023/06/29 01:37:36;;;;;;;2.67;1.63;;;20.30;67.60;;;;;;5071962;28;20487;-81
2023/06/29 01:40:08;;;;;;;4.63;2.00;;;20.30;67.50;;;;;;5069369;28;20020;-81
2023/06/29 01:42:35;;;;;;;4.10;2.13;;;20.30;67.50;;;;;;5062338;28;20059;-80
2023/06/29 01:45:03;;;;;;;3.95;1.73;;;20.30;67.60;;;;;;5069574;28;20078;-81
2023/06/29 01:47:29;;;;;;;7.07;2.05;;;20.30;67.50;;;;;;5062374;28;20021;-81
2023/06/29 01:49:55;;;;;;;6.53;2.08;;;20.30;67.60;;;;;;5041336;28;20477;-78
2023/06/29 01:52:22;;;;;;;2.22;1.75;;;20.40;67.60;;;;;;5066161;28;20119;-81
2023/06/29 01:54:47;;;;;;;4.53;1.95;;;20.30;67.50;;;;;;5062848;28;20017;-81
2023/06/29 01:57:13;;;;;;;6.07;2.00;;;20.30;67.60;;;;;;5061373;28;20545;-81
2023/06/29 01:59:40;;;;;;;3.95;1.83;;;20.30;67.50;;;;;;5061705;28;20024;-81
2023/06/29 02:02:06;;;;;;;2.63;1.90;;;20.30;67.60;;;;;;5063699;28;20108;-80
2023/06/29 02:04:32;;;;;;;8.05;2.08;;;20.30;67.60;;;;;;5063310;28;20024;-81
2023/06/29 02:06:58;;;;;;;3.55;1.90;;;20.30;68.30;;;;;;5061106;28;20031;-80
2023/06/29 02:09:24;;;;;;;5.88;2.50;;;20.30;67.70;;;;;;5068936;28;20020;-81
2023/06/29 02:11:49;;;;;;;2.38;1.98;;;20.30;67.70;;;;;;5069201;28;20023;-81
2023/06/29 02:14:18;;;;;;;3.58;2.20;;;20.30;67.60;;;;;;5058812;28;20023;-81
2023/06/29 02:16:47;;;;;;;5.07;2.10;;;20.30;67.70;;;;;;5062772;28;20024;-81
2023/06/29 02:19:12;;;;;;;3.20;1.85;;;20.30;67.70;;;;;;5062803;28;20016;-81
2023/06/29 02:21:38;;;;;;;7.32;2.15;;;20.30;67.70;;;;;;5060982;28;20524;-80
2023/06/29 02:24:04;;;;;;;6.35;2.30;;;20.30;67.70;;;;;;5068642;28;20025;-81
2023/06/29 02:26:30;;;;;;;4.15;2.25;;;20.30;67.70;;;;;;5068230;28;20427;-81
2023/06/29 02:28:55;;;;;;;2.40;1.60;;;20.30;67.70;;;;;;5062299;28;20496;-81
2023/06/29 02:31:21;;;;;;;4.65;2.00;;;20.30;67.70;;;;;;5068672;28;20162;-81
2023/06/29 02:33:48;;;;;;;5.72;2.50;;;20.30;67.70;;;;;;5063357;28;20821;-81
2023/06/29 02:36:15;;;;;;;7.90;2.35;;;20.30;67.70;;;;;;5062386;28;20021;-80
2023/06/29 02:38:41;;;;;;;4.55;2.25;;;20.30;67.80;;;;;;5066413;28;20021;-81
2023/06/29 02:41:07;;;;;;;4.40;2.20;;;20.30;67.90;;;;;;5059862;28;20075;-80
2023/06/29 02:43:33;;;;;;;5.72;1.80;;;20.20;67.70;;;;;;5065113;28;20021;-81
2023/06/29 02:45:59;;;;;;;8.07;2.30;;;20.20;67.70;;;;;;5069577;28;20025;-81
2023/06/29 02:48:25;;;;;;;7.03;2.13;;;20.30;67.80;;;;;;5065670;28;20037;-80
2023/06/29 02:50:50;;;;;;;4.32;1.92;;;20.30;67.80;;;;;;5065994;28;20017;-81
2023/06/29 02:53:16;;;;;;;3.38;2.20;;;20.20;67.70;;;;;;5061303;28;20389;-81
2023/06/29 02:55:42;;;;;;;4.97;2.20;;;20.30;67.80;;;;;;5063896;28;20017;-81
2023/06/29 02:58:08;;;;;;;7.50;2.20;;;20.30;67.80;;;;;;5068237;28;20025;-81
2023/06/29 03:00:33;;;;;;;3.83;2.15;;;20.20;67.70;;;;;;5065025;28;20464;-81
2023/06/29 03:02:59;;;;;;;4.00;2.28;;;20.30;67.80;;;;;;5064398;28;20025;-81
2023/06/29 03:05:24;;;;;;;4.10;2.15;;;20.20;67.70;;;;;;5066001;28;20473;-80
2023/06/29 03:07:50;;;;;;;3.55;2.10;;;20.20;67.70;;;;;;5063104;28;20477;-81
2023/06/29 03:10:16;;;;;;;13.63;2.45;;;20.20;67.70;;;;;;5063948;28;20421;-80
2023/06/29 03:12:41;;;;;;;7.35;2.58;;;20.20;67.70;;;;;;5066951;28;20032;-81
2023/06/29 03:15:08;;;;;;;5.22;1.92;;;20.20;67.60;;;;;;5064408;28;20025;-79
2023/06/29 03:17:33;;;;;;;3.42;2.00;;;20.20;67.70;;;;;;5066148;28;20024;-81
2023/06/29 03:19:59;;;;;;;5.20;2.33;;;20.20;67.80;;;;;;5065028;28;20388;-81
2023/06/29 03:22:26;;;;;;;3.35;1.85;;;20.20;67.60;;;;;;5065911;28;20029;-81
2023/06/29 03:24:52;;;;;;;4.47;2.00;;;20.20;67.70;;;;;;5065731;28;20021;-82
2023/06/29 03:27:18;;;;;;;2.67;2.17;;;20.20;67.60;;;;;;5064991;28;20101;-81
2023/06/29 03:29:44;;;;;;;4.25;2.30;;;20.20;67.70;;;;;;5061449;28;20044;-79
2023/06/29 03:32:10;;;;;;;3.40;2.50;;;20.20;67.60;;;;;;5065153;28;20052;-81
2023/06/29 03:34:36;;;;;;;4.53;2.40;;;20.20;67.60;;;;;;5066778;28;20103;-80
2023/06/29 03:37:01;;;;;;;3.40;2.25;;;20.20;67.70;;;;;;5063813;28;20021;-81
2023/06/29 03:39:27;;;;;;;6.50;2.30;;;20.20;67.60;;;;;;5065416;28;20028;-81
2023/06/29 03:41:52;;;;;;;2.20;1.85;;;20.20;67.70;;;;;;5065422;28;20052;-82
2023/06/29 03:44:18;;;;;;;6.05;2.63;;;20.20;67.60;;;;;;5064581;28;20499;-81
2023/06/29 03:46:43;;;;;;;2.35;1.92;;;20.20;67.70;;;;;;5062397;28;20086;-81
2023/06/29 03:49:09;;;;;;;2.33;2.00;;;20.20;68.40;;;;;;5063977;28;20662;-80
2023/06/29 03:51:35;;;;;;;5.72;2.60;;;20.20;67.60;;;;;;5063976;28;20032;-81
2023/06/29 03:54:00;;;;;;;4.30;2.40;;;20.20;67.60;;;;;;5069138;28;20067;-80
2023/06/29 03:56:26;;;;;;;9.32;2.25;;;20.20;67.50;;;;;;5064415;28;20103;-80
2023/06/29 03:58:52;;;;;;;5.43;2.15;;;20.10;67.50;;;;;;5065729;28;20027;-81
2023/06/29 04:01:17;;;;;;;2.88;2.13;;;20.20;67.70;;;;;;5064758;28;20025;-81
2023/06/29 04:03:43;;;;;;;2.38;1.88;;;20.20;67.70;;;;;;5062596;28;20032;-80
2023/06/29 04:06:08;;;;;;;3.40;2.03;;;20.20;67.70;;;;;;5064702;28;20578;-81
2023/06/29 04:08:34;;;;;;;3.88;2.25;;;20.20;67.70;;;;;;5065952;28;20144;-80
2023/06/29 04:11:00;;;;;;;3.97;2.22;;;20.20;67.80;;;;;;5062158;28;20024;-80
2023/06/29 04:13:25;;;;;;;3.15;2.05;;;20.20;67.70;;;;;;5062247;28;20021;-80
2023/06/29 04:15:53;;;;;;;5.18;2.20;;;20.20;67.80;;;;;;5064643;28;20034;-81
2023/06/29 04:18:19;;;;;;;6.25;2.40;;;20.20;67.80;;;;;;5067634;28;20519;-80
2023/06/29 04:20:44;;;;;;;4.28;2.75;;;20.20;68.60;;;;;;5066524;28;20092;-81
2023/06/29 04:23:14;;;;;;;9.85;2.42;;;20.20;67.80;;;;;;5066478;28;20477;-81
2023/06/29 04:25:42;;;;;;;;;;;20.10;67.80;;;;;;5067825;28;20044;-81
2023/06/29 04:28:08;;;;;;;4.50;2.35;;;20.10;67.80;;;;;;5061929;28;19966;-80
2023/06/29 04:30:36;;;;;;;4.85;2.47;;;20.10;67.90;;;;;;5061373;28;20016;-80
2023/06/29 04:33:09;;;;;;;3.40;2.72;;;20.10;67.90;;;;;;5064921;28;20017;-80
2023/06/29 04:35:35;;;;;;;4.40;2.20;;;20.10;67.90;;;;;;5056815;28;20021;-81
2023/06/29 04:38:01;;;;;;;6.55;2.42;;;20.10;68.00;;;;;;5052354;28;20106;-81
2023/06/29 04:40:27;;;;;;;5.55;2.25;;;20.20;68.10;;;;;;5062082;28;20122;-80
2023/06/29 04:42:55;;;;;;;4.97;2.45;;;20.20;68.10;;;;;;5058316;28;20021;-80
2023/06/29 04:45:20;;;;;;;5.22;2.60;;;20.20;68.10;;;;;;5064299;28;20029;-81
2023/06/29 04:47:50;;;;;;;2.58;2.20;;;20.10;67.90;;;;;;5064994;28;20469;-81
2023/06/29 04:50:25;;;;;;;8.23;2.75;;;20.20;68.10;;;;;;5066342;28;20047;-81
2023/06/29 04:52:58;;;;;;;3.45;2.20;;;20.20;68.10;;;;;;5060405;28;20026;-94
2023/06/29 04:55:27;;;;;;;6.32;2.50;;;20.20;68.30;;;;;;5068904;28;20372;-94
2023/06/29 04:57:52;;;;;;;6.07;2.50;;;19.80;66.40;;;;;;5064068;28;20043;-91
2023/06/29 05:00:19;;;;;;;5.10;2.65;;;19.40;66.90;;;;;;5069305;28;20021;-95
2023/06/29 05:02:45;;;;;;;8.15;2.55;;;19.20;67.70;;;;;;5066004;28;20025;-94
2023/06/29 05:05:17;;;;;;;4.80;2.30;;;19.10;68.40;;;;;;5069670;28;20036;-96
2023/06/29 05:11:07;;;;;;;10.55;2.53;;;18.90;69.30;;;;;;5068347;28;20063;-89
2023/06/29 05:13:38;;;;;;;5.70;2.10;;;18.90;69.10;;;;;;5067855;28;20114;-93
2023/06/29 05:16:04;;;;;;;11.70;2.88;;;18.90;69.60;;;;;;5063259;28;20016;-89
2023/06/29 05:19:23;;;;;;;;;;;;;;;;;;;;;
2023/06/29 05:22:09;;;;;;;6.53;2.83;;;18.90;71.20;;;;;;5060890;28;20021;-96
2023/06/29 05:56:19;;;;;;;9.45;3.10;;;18.90;72.70;;;;;;4948204;28;20034;-95
2023/06/29 05:58:51;;;;;;;8.73;3.00;;;18.90;73.60;;;;;;4950035;28;20047;-96
2023/06/29 06:01:17;;;;;;;7.03;2.97;;;19.00;72.30;;;;;;4966193;28;20046;-96
2023/06/29 06:03:48;;;;;;;5.28;3.10;;;19.00;72.00;;;;;;4980771;28;20097;-95
2023/06/29 06:06:17;;;;;;;6.25;3.03;;;19.00;71.50;;;;;;4981246;28;20034;-95
2023/06/29 06:08:45;;;;;;;6.20;3.00;;;19.00;71.70;;;;;;4978728;28;20030;-94
2023/06/29 06:11:11;;;;;;;8.07;2.85;;;19.10;73.20;;;;;;4974614;28;20119;-96
2023/06/29 06:13:36;;;;;;;9.02;3.13;;;19.10;73.60;;;;;;4990825;28;20030;-91
2023/06/29 06:16:04;;;;;;;7.20;3.55;;;19.10;73.80;;;;;;4980796;28;20037;-96
2023/06/29 06:18:30;;;;;;;7.80;3.40;;;19.20;73.10;;;;;;4979157;28;20038;-94
2023/06/29 06:20:58;;;;;;;5.68;3.33;;;19.30;73.10;;;;;;4974117;28;20029;-95
2023/06/29 06:23:24;;;;;;;10.23;3.55;;;19.40;72.40;;;;;;5010645;28;20266;-96
2023/06/29 06:25:50;;;;;;;12.00;3.45;;;19.50;72.10;;;;;;5018544;28;20049;-96
2023/06/29 06:28:16;;;;;;;10.30;3.45;;;19.50;71.90;;;;;;5020569;28;20021;-96
2023/06/29 06:30:41;;;;;;;6.82;3.38;;;19.50;71.90;;;;;;5027053;28;20047;-94
2023/06/29 06:33:07;;;;;;;10.35;3.72;;;19.50;72.00;;;;;;5069082;28;20511;-95
2023/06/29 06:35:36;;;;;;;6.45;3.65;;;19.70;71.70;;;;;;5075870;28;20491;-94
2023/06/29 06:38:02;;;;;;;13.30;3.22;;;19.60;71.50;;;;;;5078738;28;21161;-93
2023/06/29 06:40:28;;;;;;;6.15;3.42;;;19.50;73.30;;;;;;5077330;28;20056;-94
2023/06/29 06:42:54;;;;;;;10.07;3.40;;;19.60;73.10;;;;;;5084115;28;20021;-93
2023/06/29 06:45:22;;;;;;;8.50;3.80;;;19.50;72.30;;;;;;5075782;28;20036;-94
2023/06/29 06:47:48;;;;;;;14.25;3.83;;;19.50;72.90;;;;;;5074809;28;20032;-93
2023/06/29 06:50:24;;;;;;;9.85;3.42;;;19.70;72.80;;;;;;5069691;28;20637;-96
2023/06/29 06:52:50;;;;;;;8.45;3.53;;;19.70;73.30;;;;;;5073909;28;20055;-94
2023/06/29 06:55:16;;;;;;;10.95;3.28;;;19.70;72.80;;;;;;5076393;28;20029;-95
2023/06/29 06:57:42;;;;;;;9.55;3.30;;;19.70;73.60;;;;;;5076178;28;20047;-92
2023/06/29 07:00:12;;;;;;;9.32;3.78;;;19.70;73.60;;;;;;5080600;28;20669;-95
2023/06/29 07:02:38;;;;;;;7.60;3.22;;;19.70;72.50;;;;;;5068969;28;20032;-95
2023/06/29 07:05:05;;;;;;;13.32;3.30;;;19.80;72.10;;;;;;5071094;28;20016;-94
2023/06/29 07:07:31;;;;;;;10.52;3.20;;;19.80;72.70;;;;;;5069168;28;20516;-96
2023/06/29 07:09:56;;;;;;;9.35;2.75;;;19.80;72.60;;;;;;5080072;28;20079;-93
2023/06/29 07:12:29;;;;;;;5.53;2.83;;;19.90;71.60;;;;;;5074770;28;20024;-92
2023/06/29 07:14:58;;;;;;;3.17;2.60;;;20.00;71.40;;;;;;5067693;28;20080;-96
2023/06/29 07:17:27;;;;;;;6.30;2.70;;;20.00;71.90;;;;;;5076634;28;20060;-88
2023/06/29 07:20:03;;;;;;;11.02;3.08;;;20.10;71.50;;;;;;5063317;28;20043;-95
2023/06/29 07:22:30;;;;;;;6.28;2.78;;;20.10;70.90;;;;;;5064785;28;20025;-96
2023/06/29 07:24:57;;;;;;;7.45;2.97;;;20.20;69.40;;;;;;5078241;28;20110;-95
2023/06/29 07:27:23;;;;;;;7.15;3.28;;;20.10;70.20;;;;;;5078637;28;20379;-95
2023/06/29 07:29:48;;;;;;;7.35;2.50;;;20.10;70.50;;;;;;5078441;28;20024;-95
2023/06/29 07:32:14;;;;;;;8.50;3.08;;;20.20;70.30;;;;;;5078830;28;20031;-94
2023/06/29 07:34:40;;;;;;;9.63;3.28;;;20.30;69.80;;;;;;5070331;28;20039;-90
2023/06/29 07:37:06;;;;;;;5.60;2.80;;;20.30;69.50;;;;;;5085021;28;20025;-91
2023/06/29 07:39:33;;;;;;;8.25;3.72;;;20.30;70.30;;;;;;5063071;28;20033;-91
2023/06/29 07:42:00;;;;;;;4.95;3.00;;;20.30;69.90;;;;;;5076806;28;20036;-95
2023/06/29 07:44:25;;;;;;;9.38;2.72;;;20.00;69.40;;;;;;5079642;28;20017;-95
2023/06/29 07:46:51;;;;;;;6.38;2.97;;;20.30;69.60;;;;;;5078304;28;20040;-93
2023/06/29 07:49:17;;;;;;;4.43;2.92;;;20.50;69.30;;;;;;5076841;28;20103;-94
2023/06/29 07:54:46;;;;;;;6.45;2.40;;;20.60;69.00;;;;;;5064353;28;20104;-95
2023/06/29 07:57:12;;;;;;;6.32;2.22;;;20.70;67.20;;;;;;5082354;28;20481;-94
2023/06/29 07:59:41;;;;;;;4.85;2.35;;;20.70;66.60;;;;;;5075869;28;20092;-93
2023/06/29 08:02:07;;;;;;;4.03;2.13;;;20.70;67.20;;;;;;5075928;28;20385;-93
2023/06/29 08:04:33;;;;;;;9.50;2.28;;;20.70;67.70;;;;;;5076037;28;20083;-95
2023/06/29 08:06:59;;;;;;;8.77;2.70;;;20.70;67.20;;;;;;5072933;28;20028;-94
2023/06/29 08:09:25;;;;;;;6.65;2.40;;;20.80;67.30;;;;;;5059808;28;20220;-94
2023/06/29 08:12:45;;;;;;;5.70;2.67;;;20.80;67.20;;;;;;5086384;28;20182;-91
2023/06/29 08:18:26;;;;;;;4.50;2.70;;;20.70;66.60;;;;;;4990991;28;20053;-96
2023/06/29 08:20:52;;;;;;;5.20;2.53;;;20.80;66.70;;;;;;5009129;28;20029;-94
2023/06/29 08:23:59;;;;;;;7.65;2.53;;;20.80;67.10;;;;;;4999566;28;20026;-96
2023/06/29 08:26:34;;;;;;;6.50;2.65;;;20.80;67.10;;;;;;5006872;28;20093;-96
2023/06/29 08:29:00;;;;;;;6.63;2.78;;;20.90;66.00;;;;;;5002108;28;20045;-95
2023/06/29 08:31:29;;;;;;;7.25;2.53;;;21.00;65.60;;;;;;5004052;28;20022;-94
2023/06/29 08:59:16;;;;;;;4.97;1.60;;;21.00;62.10;;;;;;5042193;28;20842;-96
2023/06/29 09:04:21;;;;;;;4.05;1.98;;;21.10;62.80;;;;;;5501633;23;20052;-96
2023/06/29 09:07:03;;;;;;;3.45;1.80;;;21.10;63.90;;;;;;5286211;22;20274;-93
2023/06/29 09:09:29;;;;;;;1.42;1.33;;;21.20;62.80;;;;;;5052795;28;20048;-95
2023/06/29 09:11:54;;;;;;;2.97;1.73;;;21.20;64.00;;;;;;5050399;28;20021;-96
2023/06/29 09:14:20;;;;;;;8.70;2.10;;;21.20;62.20;;;;;;5049283;28;20036;-94
2023/06/29 09:16:53;;;;;;;1.75;1.60;;;21.20;62.40;;;;;;5049402;28;20021;-96
2023/06/29 09:19:21;;;;;;;3.15;1.95;;;21.20;63.30;;;;;;5055981;28;20037;-96
2023/06/29 09:21:48;;;;;;;3.97;1.60;;;21.20;62.90;;;;;;5052829;28;20465;-96
2023/06/29 09:24:16;;;;;;;3.33;1.65;;;21.20;62.90;;;;;;5083656;28;20120;-96
2023/06/29 09:26:42;;;;;;;5.22;1.70;;;21.20;62.50;;;;;;5074200;28;20028;-96
2023/06/29 09:29:08;;;;;;;9.23;2.08;;;21.30;62.20;;;;;;5625813;23;20020;-96
2023/06/29 09:31:53;;;;;;;4.07;1.80;;;21.30;61.80;;;;;;5059252;28;20056;-95
2023/06/29 09:34:28;;;;;;;4.47;1.73;;;21.40;61.50;;;;;;5067214;28;20033;-95
2023/06/29 09:39:56;;;;;;;3.20;1.60;;;21.30;63.50;;;;;;5112843;22;20057;-94
2023/06/29 09:42:23;;;;;;;4.55;1.40;;;21.30;63.20;;;;;;5066565;28;20016;-96
2023/06/29 09:44:48;;;;;;;2.72;1.75;;;21.40;63.60;;;;;;5053032;28;20037;-92
2023/06/29 09:47:14;;;;;;;1.73;1.17;;;21.40;63.90;;;;;;5071141;28;20021;-93
2023/06/29 09:49:44;;;;;;;3.35;1.67;;;21.50;62.00;;;;;;5053624;28;20120;-95
2023/06/29 09:52:10;;;;;;;2.78;1.58;;;21.50;63.50;;;;;;5058099;28;20379;-96
2023/06/29 09:54:36;;;;;;;4.65;1.35;;;21.50;64.10;;;;;;5059396;28;20024;-94
2023/06/29 09:57:03;;;;;;;3.10;1.80;;;21.50;64.90;;;;;;5060413;28;20388;-96
2023/06/29 09:59:33;;;;;;;3.17;1.52;;;21.40;64.80;;;;;;5053613;28;20024;-96
2023/06/29 10:01:59;;;;;;;2.47;1.30;;;21.40;64.40;;;;;;5049265;28;20071;-95
2023/06/29 10:04:25;;;;;;;4.32;1.80;;;21.40;63.90;;;;;;5072237;28;20021;-95
2023/06/29 10:06:59;;;;;;;4.43;1.83;;;21.50;62.20;;;;;;5057446;28;20380;-95
2023/06/29 10:09:25;;;;;;;2.70;1.60;;;21.60;62.40;;;;;;5076826;28;20037;-96
2023/06/29 10:11:53;;;;;;;5.50;1.50;;;21.50;61.70;;;;;;5061594;28;20058;-96
2023/06/29 10:14:21;;;;;;;3.38;1.80;;;21.50;62.00;;;;;;5073275;28;20489;-96
2023/06/29 10:16:50;;;;;;;2.85;1.38;;;21.50;61.50;;;;;;5059429;28;20020;-95
2023/06/29 10:19:21;;;;;;;4.37;1.67;;;21.50;61.50;;;;;;5054253;28;20337;-96
2023/06/29 10:21:52;;;;;;;2.45;1.50;;;21.60;61.20;;;;;;5054338;28;20028;-94
2023/06/29 10:24:22;;;;;;;3.53;1.70;;;21.60;62.10;;;;;;5053483;28;20396;-96
2023/06/29 10:26:49;;;;;;;3.15;1.52;;;21.60;62.60;;;;;;5052539;28;20384;-94
2023/06/29 10:29:15;;;;;;;3.80;1.70;;;21.60;62.40;;;;;;5057970;28;20032;-95
2023/06/29 10:31:56;;;;;;;2.63;1.48;;;21.60;61.70;;;;;;5055339;28;20024;-96
2023/06/29 10:34:24;;;;;;;2.90;1.50;;;21.50;62.40;;;;;;5058386;28;20532;-96
2023/06/29 10:36:50;;;;;;;3.30;1.67;;;21.60;63.20;;;;;;5055278;28;20040;-93
2023/06/29 10:39:37;;;;;;;8.20;1.55;;;21.60;63.00;;;;;;5257963;22;20578;-96
2023/06/29 10:42:29;;;;;;;3.50;1.67;;;21.60;62.10;;;;;;5408428;22;20045;-96
2023/06/29 10:44:55;;;;;;;2.85;1.58;;;21.60;61.90;;;;;;5019830;28;20048;-93
2023/06/29 10:47:28;;;;;;;4.22;1.60;;;21.70;62.40;;;;;;5034355;28;20018;-96
2023/06/29 10:50:17;;;;;;;3.58;1.45;;;21.70;64.10;;;;;;5044474;28;20130;-96
2023/06/29 10:52:49;;;;;;;4.25;1.77;;;21.70;63.70;;;;;;5034420;28;20125;-96
2023/06/29 10:55:16;;;;;;;2.05;1.63;;;21.70;64.30;;;;;;5037151;28;20100;-95
2023/06/29 10:57:52;;;;;;;5.47;1.40;;;21.70;63.60;;;;;;5037200;28;20120;-95
2023/06/29 11:00:18;;;;;;;4.60;1.60;;;21.70;64.10;;;;;;5026153;28;20570;-95
2023/06/29 11:02:46;;;;;;;3.33;1.55;;;21.80;65.00;;;;;;5028781;28;20105;-96
2023/06/29 11:05:17;;;;;;;7.95;1.90;;;21.90;65.00;;;;;;5014156;28;20038;-96
2023/06/29 11:07:51;;;;;;;3.85;2.00;;;22.00;62.60;;;;;;5025759;28;20044;-95
2023/06/29 11:10:21;;;;;;;3.92;1.67;;;22.00;64.70;;;;;;5026776;28;20581;-96
2023/06/29 11:20:38;;;;;;;7.32;1.98;;;22.10;62.10;;;;;;5168380;22;20041;-95
2023/06/29 11:23:10;;;;;;;6.00;1.55;;;22.10;62.60;;;;;;5033841;28;20470;-93
2023/06/29 11:25:39;;;;;;;2.03;1.70;;;22.20;62.30;;;;;;5033207;28;20060;-96
2023/06/29 11:28:07;;;;;;;2.88;1.60;;;22.20;61.70;;;;;;5025475;28;20049;-95
2023/06/29 11:30:39;;;;;;;2.92;1.90;;;22.10;61.50;;;;;;5028010;28;20043;-95
2023/06/29 11:33:04;;;;;;;4.15;1.95;;;22.20;61.20;;;;;;5032158;28;20089;-96
2023/06/29 11:35:31;;;;;;;3.08;1.30;;;22.20;60.20;;;;;;5025335;28;20167;-96
2023/06/29 11:38:01;;;;;;;2.38;1.60;;;22.40;63.00;;;;;;5022491;28;20025;-96
2023/06/29 11:40:28;;;;;;;8.35;1.60;;;22.40;61.40;;;;;;5024684;28;20044;-95
2023/06/29 11:42:54;;;;;;;2.55;1.50;;;22.40;62.30;;;;;;5027665;28;20025;-93
2023/06/29 11:45:21;;;;;;;5.72;1.58;;;22.50;62.50;;;;;;5026060;28;20076;-95
2023/06/29 11:47:54;;;;;;;1.58;1.30;;;22.50;61.40;;;;;;5021933;28;20025;-95
2023/06/29 11:50:19;;;;;;;4.45;1.70;;;22.60;61.00;;;;;;5027882;28;20830;-95
2023/06/29 11:52:46;;;;;;;2.67;1.77;;;22.50;61.60;;;;;;5027304;28;20025;-96
2023/06/29 11:55:13;;;;;;;2.00;1.60;;;22.60;60.80;;;;;;5022297;28;20118;-94
2023/06/29 11:57:40;;;;;;;3.78;1.65;;;22.50;59.90;;;;;;5022910;28;20025;-96
2023/06/29 12:00:31;;;;;;;3.10;1.55;;;22.50;60.20;;;;;;5022928;28;20076;-95
2023/06/29 12:03:08;;;;;;;4.75;1.70;;;22.50;59.70;;;;;;5029236;28;20185;-96
2023/06/29 12:05:40;;;;;;;5.18;1.60;;;22.50;59.30;;;;;;5049138;28;20074;-96
2023/06/29 12:08:08;;;;;;;2.92;1.65;;;22.50;58.50;;;;;;5016982;28;20583;-95
2023/06/29 12:10:36;;;;;;;3.08;1.70;;;22.50;58.80;;;;;;5029522;28;20036;-94
2023/06/29 12:13:03;;;;;;;2.25;1.40;;;22.50;60.00;;;;;;5026647;28;20028;-95
2023/06/29 12:15:33;;;;;;;3.25;1.67;;;22.70;58.90;;;;;;5029044;28;20088;-95
2023/06/29 12:18:07;;;;;;;2.30;1.73;;;22.70;58.50;;;;;;5034043;28;20017;-96
2023/06/29 12:20:38;;;;;;;3.83;1.85;;;22.70;59.80;;;;;;5042934;28;20033;-96
2023/06/29 12:23:04;;;;;;;1.58;1.48;;;22.70;59.00;;;;;;5033264;28;20024;-96
2023/06/29 12:25:29;;;;;;;4.40;2.10;;;22.70;59.10;;;;;;5034681;28;20028;-95
2023/06/29 12:28:01;;;;;;;5.80;1.75;;;22.60;60.10;;;;;;5032999;28;20116;-95
2023/06/29 12:30:27;;;;;;;4.13;1.50;;;22.60;59.80;;;;;;5035712;28;20037;-95
2023/06/29 12:32:55;;;;;;;8.30;1.50;;;22.60;59.50;;;;;;5038991;28;20389;-95
2023/06/29 12:35:21;;;;;;;2.90;1.60;;;22.50;59.50;;;;;;5039627;28;20091;-95
2023/06/29 12:37:46;;;;;;;2.03;1.60;;;22.50;59.60;;;;;;5002564;28;20029;-96
2023/06/29 12:40:14;;;;;;;2.70;1.83;;;22.50;60.00;;;;;;5028748;28;20033;-95
2023/06/29 12:42:40;;;;;;;3.90;1.77;;;22.50;59.60;;;;;;5033745;28;20409;-95
2023/06/29 12:45:06;;;;;;;3.30;1.52;;;22.40;59.80;;;;;;5027572;28;20031;-95
2023/06/29 12:47:39;;;;;;;2.40;1.83;;;22.40;59.70;;;;;;5029395;28;20025;-96
2023/06/29 12:50:23;;;;;;;2.55;2.00;;;22.40;59.70;;;;;;5032699;28;20033;-96
2023/06/29 12:52:54;;;;;;;2.65;1.70;;;22.50;59.60;;;;;;5033956;28;20025;-95
2023/06/29 12:55:20;;;;;;;3.75;1.90;;;22.50;60.00;;;;;;5029120;28;20065;-83
2023/06/29 12:57:46;;;;;;;4.25;1.98;;;22.50;59.80;;;;;;5021267;28;20053;-83
2023/06/29 13:00:12;;;;;;;5.38;2.17;;;22.40;60.70;;;;;;5022299;28;20051;-84
2023/06/29 13:02:38;;;;;;;2.92;1.83;;;22.20;61.40;;;;;;5042092;28;20025;-83
2023/06/29 13:05:04;;;;;;;3.10;1.90;;;22.10;62.10;;;;;;5045447;28;20471;-83
2023/06/29 13:07:29;;;;;;;2.55;1.83;;;22.00;62.50;;;;;;5028944;28;20115;-84
2023/06/29 13:09:57;;;;;;;5.10;2.10;;;21.90;62.70;;;;;;5047928;28;20096;-85
2023/06/29 13:12:23;;;;;;;6.43;2.25;;;21.90;63.90;;;;;;5043451;28;20421;-85
2023/06/29 13:14:50;;;;;;;16.58;2.42;;;21.80;63.50;;;;;;5037676;28;20060;-85
2023/06/29 13:17:16;;;;;;;3.05;2.13;;;21.80;63.60;;;;;;5043086;28;20029;-84
2023/06/29 13:19:44;;;;;;;10.00;2.15;;;21.80;63.70;;;;;;5043152;28;20055;-83
2023/06/29 13:22:09;;;;;;;11.60;2.45;;;21.80;63.80;;;;;;5041965;28;20056;-84
2023/06/29 13:24:35;;;;;;;1.70;1.52;;;21.70;63.90;;;;;;5040682;28;20018;-85
2023/06/29 13:27:03;;;;;;;2.88;2.00;;;21.70;64.00;;;;;;5047170;28;20366;-85
2023/06/29 13:29:35;;;;;;;4.13;2.00;;;21.70;64.10;;;;;;5037420;28;20041;-90
2023/06/29 13:32:04;;;;;;;4.80;2.08;;;21.70;63.60;;;;;;5017632;28;20029;-89
2023/06/29 13:34:30;;;;;;;7.78;1.90;;;22.00;62.20;;;;;;5035106;28;20022;-93
2023/06/29 13:36:56;;;;;;;3.53;1.92;;;22.20;61.40;;;;;;5036196;28;20028;-89
2023/06/29 13:39:22;;;;;;;6.05;2.42;;;22.30;61.00;;;;;;5028530;28;20022;-89
2023/06/29 13:41:49;;;;;;;2.50;1.85;;;22.40;60.40;;;;;;5032465;28;20351;-88
2023/06/29 13:44:16;;;;;;;2.28;1.85;;;22.40;60.70;;;;;;5023946;28;20029;-87
2023/06/29 13:46:46;;;;;;;4.00;2.00;;;22.40;60.40;;;;;;5026848;28;20060;-88
2023/06/29 13:49:12;;;;;;;3.33;2.13;;;22.40;60.70;;;;;;5044004;28;20469;-88
2023/06/29 13:51:37;;;;;;;7.10;1.98;;;22.50;61.10;;;;;;5029283;28;20392;-89
2023/06/29 13:54:04;;;;;;;2.55;2.25;;;22.50;61.00;;;;;;5021325;28;20013;-87
2023/06/29 13:56:34;;;;;;;4.05;1.70;;;22.60;61.90;;;;;;5025508;28;20017;-87
2023/06/29 13:59:03;;;;;;;3.15;1.85;;;22.70;60.00;;;;;;5026023;28;20366;-91
2023/06/29 14:01:29;;;;;;;5.43;1.83;;;22.60;60.80;;;;;;5026697;28;20124;-89
2023/06/29 14:03:55;;;;;;;6.03;2.20;;;22.60;60.20;;;;;;5023629;28;20052;-89
2023/06/29 14:06:20;;;;;;;4.10;2.08;;;22.60;60.60;;;;;;5022674;28;20537;-89
2023/06/29 14:08:46;;;;;;;8.98;2.35;;;22.60;60.00;;;;;;5029404;28;20041;-89
2023/06/29 14:11:12;;;;;;;4.72;2.10;;;22.60;60.20;;;;;;5033212;28;20031;-90
2023/06/29 14:13:38;;;;;;;5.10;2.13;;;22.60;59.80;;;;;;5050126;28;20079;-91